Terminal Aerodrome Forecast
Issued by NWS

Home | Current Version | Previous Version | Text Only | Print | Product List | Glossary On
Versions: 1 2 3 4 5 6 7 8 9 10 11 12 13 14
872
FTUS45 KFGZ 260540
TAFGCN
TAF
KGCN 260540Z 2606/2706 24012KT P6SM BKN050 OVC100
     FM260800 23007KT P6SM SCT050 SCT120
     FM261200 21005KT P6SM BKN040 OVC060
     FM262100 21008G18KT P6SM OVC030=

USA.gov is the U.S. government's official web portal to all federal, state and local government web resources and services.